Time;durP1;ratioP1;P1;durP2;ratioP2;P2;SDS_P1;SDS_P2;PMS_P1;PMS_P2;Temp;Humidity;BMP_temperature;BMP_pressure;BME280_temperature;BME280_humidity;BME280_pressure;Samples;Min_cycle;Max_cycle;Signal;HPM_P1;HPM_P2
2023/06/14 00:00:12;;;;;;;10.23;4.25;;;17.70;1.00;;;;;;5013009;28;20033;-67
2023/06/14 00:02:39;;;;;;;5.63;3.70;;;17.70;1.00;;;;;;5013023;28;20026;-67
2023/06/14 00:05:05;;;;;;;8.40;4.28;;;17.70;1.00;;;;;;5012793;28;20530;-67
2023/06/14 00:07:43;;;;;;;7.18;4.45;;;17.70;1.00;;;;;;5013044;28;20057;-66
2023/06/14 00:10:10;;;;;;;9.70;4.30;;;17.60;1.00;;;;;;5013229;28;20491;-67
2023/06/14 00:12:36;;;;;;;5.10;3.80;;;17.60;1.00;;;;;;5013482;28;20030;-67
2023/06/14 00:15:02;;;;;;;7.63;3.75;;;17.50;1.00;;;;;;5016426;28;20022;-67
2023/06/14 00:17:31;;;;;;;7.47;4.20;;;17.40;1.00;;;;;;5016555;28;20025;-66
2023/06/14 00:19:57;;;;;;;9.43;4.10;;;17.30;1.00;;;;;;5016566;28;20472;-66
2023/06/14 00:22:28;;;;;;;7.07;4.20;;;17.30;1.00;;;;;;5016159;28;20029;-66
2023/06/14 00:24:54;;;;;;;6.38;4.13;;;17.30;1.00;;;;;;5016189;28;20030;-66
2023/06/14 00:27:19;;;;;;;7.43;4.32;;;17.20;1.00;;;;;;5016360;28;20045;-66
2023/06/14 00:29:45;;;;;;;5.90;3.95;;;17.10;1.00;;;;;;5031497;28;20039;-66
2023/06/14 00:32:11;;;;;;;6.35;4.03;;;17.00;1.00;;;;;;5016171;28;20395;-67
2023/06/14 00:34:36;;;;;;;9.50;4.07;;;17.00;1.00;;;;;;5016368;28;20041;-67
2023/06/14 00:37:02;;;;;;;8.38;4.43;;;16.90;1.00;;;;;;5016169;28;20072;-67
2023/06/14 00:39:27;;;;;;;6.95;3.88;;;16.90;1.00;;;;;;5015951;28;20127;-67
2023/06/14 00:41:53;;;;;;;9.85;4.05;;;16.90;1.00;;;;;;5016167;28;20121;-66
2023/06/14 00:44:19;;;;;;;6.95;3.85;;;16.80;1.00;;;;;;5016079;28;20041;-67
2023/06/14 00:46:46;;;;;;;8.05;4.05;;;16.70;1.00;;;;;;5015772;28;20037;-66
2023/06/14 00:49:14;;;;;;;7.30;3.53;;;16.70;1.00;;;;;;5015709;28;20117;-66
2023/06/14 00:51:41;;;;;;;7.97;4.22;;;16.70;1.00;;;;;;5015827;28;20030;-66
2023/06/14 00:54:06;;;;;;;10.48;4.25;;;16.70;1.00;;;;;;5015908;28;20044;-66
2023/06/14 00:56:32;;;;;;;5.20;3.53;;;16.60;1.00;;;;;;5015719;28;20051;-66
2023/06/14 00:58:58;;;;;;;8.65;3.72;;;16.60;1.00;;;;;;5015614;28;20025;-66
2023/06/14 01:01:24;;;;;;;4.30;3.47;;;16.60;1.00;;;;;;5015346;28;20209;-66
2023/06/14 01:03:51;;;;;;;5.75;3.58;;;16.60;1.00;;;;;;5015685;28;20399;-66
2023/06/14 01:06:33;;;;;;;9.25;4.22;;;16.60;1.00;;;;;;5015252;28;20111;-66
2023/06/14 01:09:38;;;;;;;4.72;4.07;;;16.60;1.00;;;;;;5015619;28;20022;-67
2023/06/14 01:12:15;;;;;;;6.35;3.67;;;16.50;1.00;;;;;;5015320;28;20369;-67
2023/06/14 01:14:41;;;;;;;6.70;3.83;;;16.50;1.00;;;;;;5015379;28;20030;-67
2023/06/14 01:17:15;;;;;;;10.18;3.95;;;16.50;1.00;;;;;;5015335;28;20052;-66
2023/06/14 01:19:42;;;;;;;6.25;4.20;;;16.50;1.00;;;;;;5015292;28;20107;-66
2023/06/14 01:22:08;;;;;;;10.18;3.65;;;16.40;1.00;;;;;;5015717;28;20037;-67
2023/06/14 01:24:34;;;;;;;8.73;4.63;;;16.40;1.00;;;;;;5014933;28;20499;-66
2023/06/14 01:27:00;;;;;;;7.35;3.45;;;16.30;1.00;;;;;;5015048;28;20037;-66
2023/06/14 01:29:27;;;;;;;6.57;3.70;;;16.20;1.00;;;;;;5015242;28;20427;-66
2023/06/14 01:31:54;;;;;;;9.32;4.18;;;16.20;1.00;;;;;;5015005;28;20101;-66
2023/06/14 01:34:20;;;;;;;6.03;3.85;;;16.10;1.00;;;;;;5015104;28;20546;-66
2023/06/14 01:36:47;;;;;;;7.13;3.67;;;16.10;1.00;;;;;;5014946;28;20030;-66
2023/06/14 01:39:15;;;;;;;8.63;4.18;;;16.10;2.00;;;;;;5014897;28;20056;-67
2023/06/14 01:41:42;;;;;;;6.20;3.75;;;16.00;1.00;;;;;;5014873;28;20030;-66
2023/06/14 01:44:08;;;;;;;6.20;3.90;;;16.00;1.70;;;;;;5015060;28;20026;-66
2023/06/14 01:46:34;;;;;;;5.65;3.95;;;16.00;1.00;;;;;;5014690;28;20038;-66
2023/06/14 01:49:00;;;;;;;6.10;3.80;;;16.00;6.70;;;;;;5014975;28;20022;-66
2023/06/14 01:51:25;;;;;;;5.63;3.90;;;16.00;8.00;;;;;;5014818;28;20030;-66
2023/06/14 01:53:51;;;;;;;8.18;3.95;;;15.90;11.00;;;;;;5014593;28;20430;-66
2023/06/14 01:56:16;;;;;;;8.65;4.28;;;15.90;14.30;;;;;;5014590;28;20029;-66
2023/06/14 01:58:42;;;;;;;7.53;4.13;;;15.90;16.20;;;;;;5014507;28;20034;-66
2023/06/14 02:01:08;;;;;;;5.97;4.35;;;15.90;21.10;;;;;;5014708;28;20114;-66
2023/06/14 02:03:34;;;;;;;6.47;3.83;;;15.80;29.50;;;;;;5014481;28;20057;-66
2023/06/14 02:05:59;;;;;;;8.63;4.18;;;15.80;23.40;;;;;;5014099;28;20046;-66
2023/06/14 02:08:25;;;;;;;5.75;3.92;;;15.70;31.00;;;;;;5014330;28;20032;-66
2023/06/14 02:10:51;;;;;;;9.57;4.10;;;15.70;34.80;;;;;;5014194;28;20026;-66
2023/06/14 02:13:17;;;;;;;7.57;4.20;;;15.60;37.60;;;;;;5014275;28;20076;-66
2023/06/14 02:15:43;;;;;;;12.32;4.00;;;15.60;42.30;;;;;;5014221;28;20026;-66
2023/06/14 02:18:09;;;;;;;5.28;4.30;;;15.50;47.40;;;;;;5014245;28;20029;-66
2023/06/14 02:20:35;;;;;;;7.15;4.60;;;15.50;54.20;;;;;;5029428;28;20021;-66
2023/06/14 02:23:01;;;;;;;8.75;4.38;;;15.50;61.40;;;;;;5014239;28;20491;-66
2023/06/14 02:25:27;;;;;;;10.18;4.55;;;15.50;59.80;;;;;;5013997;28;20040;-66
2023/06/14 02:27:54;;;;;;;9.38;4.25;;;15.40;68.70;;;;;;5014043;28;20392;-66
2023/06/14 02:30:20;;;;;;;11.05;4.40;;;15.40;77.30;;;;;;5013982;28;20030;-66
2023/06/14 02:32:48;;;;;;;8.13;4.03;;;15.40;83.80;;;;;;5013996;28;20029;-66
2023/06/14 02:35:14;;;;;;;6.88;4.13;;;15.40;86.70;;;;;;5013755;28;20017;-66
2023/06/14 02:37:39;;;;;;;9.80;4.38;;;15.40;92.10;;;;;;5013950;28;20507;-66
2023/06/14 02:40:06;;;;;;;8.65;4.15;;;15.30;96.90;;;;;;5013924;28;20419;-66
2023/06/14 02:42:31;;;;;;;4.63;3.80;;;15.30;97.90;;;;;;5014125;28;20034;-66
2023/06/14 02:44:57;;;;;;;9.27;4.65;;;15.30;99.90;;;;;;5013922;28;20590;-66
2023/06/14 02:47:22;;;;;;;8.35;3.80;;;15.30;99.90;;;;;;5013728;28;20022;-66
2023/06/14 02:49:48;;;;;;;6.30;4.13;;;15.20;99.90;;;;;;5013685;28;20034;-66
2023/06/14 02:52:14;;;;;;;8.73;4.20;;;15.20;99.90;;;;;;5013722;28;20060;-67
2023/06/14 02:54:40;;;;;;;7.10;4.20;;;15.20;99.90;;;;;;5013711;28;20026;-66
2023/06/14 02:57:07;;;;;;;7.25;4.38;;;15.10;99.90;;;;;;5013658;28;20083;-67
2023/06/14 02:59:33;;;;;;;8.98;4.28;;;15.20;99.90;;;;;;5013842;28;20034;-66
2023/06/14 03:01:59;;;;;;;5.63;4.38;;;15.10;99.90;;;;;;5028867;28;20037;-66
2023/06/14 03:04:25;;;;;;;8.30;4.35;;;15.10;99.90;;;;;;5013286;28;20447;-67
2023/06/14 03:06:51;;;;;;;6.35;4.43;;;15.10;99.90;;;;;;5013257;28;20053;-66
2023/06/14 03:09:17;;;;;;;8.93;4.28;;;15.10;99.90;;;;;;5013630;28;20030;-66
2023/06/14 03:11:42;;;;;;;8.18;4.25;;;15.10;99.90;;;;;;5013510;28;20151;-66
2023/06/14 03:14:08;;;;;;;9.43;3.72;;;15.20;99.90;;;;;;5013436;28;20040;-66
2023/06/14 03:16:34;;;;;;;6.50;3.83;;;15.20;99.90;;;;;;5013529;28;20037;-66
2023/06/14 03:18:59;;;;;;;7.00;4.28;;;15.20;99.90;;;;;;5013308;28;20042;-66
2023/06/14 03:21:25;;;;;;;6.05;4.25;;;15.20;99.90;;;;;;5013324;28;20164;-66
2023/06/14 03:23:52;;;;;;;8.35;4.28;;;15.20;99.90;;;;;;5013522;28;20018;-66
2023/06/14 03:26:18;;;;;;;6.35;4.40;;;15.20;99.90;;;;;;5013193;28;20044;-66
2023/06/14 03:28:45;;;;;;;7.88;4.00;;;15.20;99.90;;;;;;5013504;28;20116;-66
2023/06/14 03:31:11;;;;;;;7.63;4.07;;;15.20;99.90;;;;;;5013272;28;20018;-67
2023/06/14 03:33:37;;;;;;;8.20;4.10;;;15.10;99.90;;;;;;5013440;28;20041;-66
2023/06/14 03:36:03;;;;;;;6.10;4.13;;;15.10;99.90;;;;;;5013424;28;20424;-66
2023/06/14 03:38:29;;;;;;;6.43;4.00;;;15.10;99.90;;;;;;5013100;28;20459;-66
2023/06/14 03:40:54;;;;;;;5.25;3.83;;;15.10;99.90;;;;;;5013031;28;20061;-66
2023/06/14 03:43:20;;;;;;;5.65;3.90;;;15.10;99.90;;;;;;5013163;28;20064;-66
2023/06/14 03:45:46;;;;;;;6.93;3.75;;;15.10;99.90;;;;;;5013255;28;20022;-65
2023/06/14 03:48:11;;;;;;;8.43;3.85;;;15.10;99.90;;;;;;5014877;28;20531;-66
2023/06/14 03:50:37;;;;;;;4.65;3.80;;;15.10;99.90;;;;;;5016992;28;20022;-66
2023/06/14 03:53:04;;;;;;;6.20;3.88;;;15.10;99.90;;;;;;5016881;28;20388;-66
2023/06/14 03:55:31;;;;;;;8.05;4.03;;;15.10;99.90;;;;;;5016987;28;20535;-65
2023/06/14 03:57:57;;;;;;;6.65;3.80;;;15.10;99.90;;;;;;5016795;28;20161;-66
2023/06/14 04:00:23;;;;;;;6.60;4.20;;;15.10;99.90;;;;;;5016698;28;20026;-66
2023/06/14 04:02:48;;;;;;;8.95;3.92;;;15.10;99.90;;;;;;5016881;28;20391;-65
2023/06/14 04:05:16;;;;;;;7.30;4.03;;;15.10;99.90;;;;;;5016356;28;20108;-66
2023/06/14 04:07:44;;;;;;;6.25;3.92;;;15.20;99.90;;;;;;5016697;28;20029;-66
2023/06/14 04:10:11;;;;;;;5.93;3.75;;;15.20;99.90;;;;;;5016571;28;20472;-66
2023/06/14 04:12:36;;;;;;;6.00;4.00;;;15.30;99.90;;;;;;5031914;28;20471;-66
2023/06/14 04:15:02;;;;;;;7.57;4.25;;;15.30;99.90;;;;;;5016708;28;20030;-66
2023/06/14 04:17:28;;;;;;;8.30;4.05;;;15.40;99.90;;;;;;5016386;28;20072;-65
2023/06/14 04:19:53;;;;;;;6.20;3.85;;;15.40;99.90;;;;;;5016375;28;20029;-65
2023/06/14 04:22:19;;;;;;;9.02;3.92;;;15.50;99.90;;;;;;5016258;28;20066;-66
2023/06/14 04:24:46;;;;;;;8.07;4.22;;;15.50;99.90;;;;;;5016375;28;20026;-65
2023/06/14 04:27:11;;;;;;;5.68;3.95;;;15.70;99.90;;;;;;5016241;28;20080;-66
2023/06/14 04:29:37;;;;;;;7.30;4.43;;;15.80;99.90;;;;;;5016303;28;20026;-66
2023/06/14 04:32:03;;;;;;;8.68;3.85;;;16.00;99.90;;;;;;5016429;28;20487;-65
2023/06/14 04:34:32;;;;;;;4.40;4.00;;;16.60;99.90;;;;;;5016015;28;20091;-66
2023/06/14 04:36:59;;;;;;;8.23;4.10;;;17.00;99.90;;;;;;5016230;28;20768;-66
2023/06/14 04:39:26;;;;;;;8.45;3.60;;;17.70;99.90;;;;;;5015991;28;20060;-66
2023/06/14 04:41:52;;;;;;;8.02;3.47;;;19.00;99.90;;;;;;5015945;28;20029;-66
2023/06/14 04:44:19;;;;;;;7.05;3.50;;;20.60;99.90;;;;;;5015956;28;20381;-67
2023/06/14 04:46:47;;;;;;;8.27;3.72;;;22.10;99.90;;;;;;5015901;28;20109;-67
2023/06/14 04:49:15;;;;;;;5.22;3.05;;;23.10;99.90;;;;;;5015665;28;20396;-67
2023/06/14 04:51:42;;;;;;;6.63;3.85;;;23.60;99.90;;;;;;5030979;28;20034;-67
2023/06/14 04:54:10;;;;;;;7.97;3.40;;;23.90;99.90;;;;;;5015787;28;20531;-67
2023/06/14 04:56:37;;;;;;;4.80;3.40;;;23.80;99.90;;;;;;5015759;28;20084;-67
2023/06/14 04:59:04;;;;;;;6.65;3.53;;;24.60;99.90;;;;;;5015393;28;20025;-67
2023/06/14 05:01:31;;;;;;;6.05;4.20;;;24.40;95.80;;;;;;5015732;28;20473;-67
2023/06/14 05:03:57;;;;;;;6.03;3.25;;;24.80;93.90;;;;;;5015576;28;20026;-67
2023/06/14 05:06:23;;;;;;;8.25;3.35;;;25.50;92.00;;;;;;5015305;28;20155;-67
2023/06/14 05:08:49;;;;;;;3.95;3.15;;;25.40;88.00;;;;;;5015453;28;20113;-67
2023/06/14 05:11:14;;;;;;;6.32;3.28;;;25.10;78.90;;;;;;5015381;28;20034;-68
2023/06/14 05:13:41;;;;;;;8.15;3.30;;;25.30;74.70;;;;;;5015447;28;20025;-67
2023/06/14 05:16:07;;;;;;;8.20;3.50;;;25.80;69.50;;;;;;5015416;28;20018;-67
2023/06/14 05:18:35;;;;;;;8.60;3.70;;;26.30;68.10;;;;;;5015459;28;20117;-67
2023/06/14 05:21:01;;;;;;;6.30;3.20;;;25.70;66.70;;;;;;5015168;28;20030;-67
2023/06/14 05:23:26;;;;;;;4.15;3.13;;;26.10;57.80;;;;;;5015102;28;20534;-67
2023/06/14 05:25:52;;;;;;;10.25;3.13;;;26.60;59.50;;;;;;5015173;28;20104;-68
2023/06/14 05:28:18;;;;;;;6.60;3.40;;;26.80;58.50;;;;;;5015304;28;20504;-67
2023/06/14 05:30:43;;;;;;;7.93;3.60;;;26.80;49.40;;;;;;5014907;28;20109;-67
2023/06/14 05:33:09;;;;;;;6.55;3.40;;;26.00;46.60;;;;;;5015154;28;20030;-67
2023/06/14 05:35:34;;;;;;;7.95;3.53;;;26.40;49.60;;;;;;5015112;28;20037;-67
2023/06/14 05:38:00;;;;;;;6.15;3.10;;;26.70;49.00;;;;;;5014783;28;20030;-67
2023/06/14 05:40:26;;;;;;;4.78;2.55;;;27.50;40.40;;;;;;5014596;28;20172;-67
2023/06/14 05:42:52;;;;;;;5.07;2.90;;;27.40;34.90;;;;;;5014706;28;20109;-67
2023/06/14 05:45:17;;;;;;;6.35;3.40;;;27.20;33.60;;;;;;5014744;28;20101;-67
2023/06/14 05:47:43;;;;;;;4.85;2.83;;;27.30;32.30;;;;;;5014742;28;20022;-67
2023/06/14 05:50:09;;;;;;;4.85;2.78;;;27.40;39.00;;;;;;5014756;28;20029;-67
2023/06/14 05:52:36;;;;;;;5.93;2.85;;;27.30;33.60;;;;;;5014761;28;20105;-67
2023/06/14 05:55:03;;;;;;;6.72;2.88;;;28.30;42.20;;;;;;5014820;28;20026;-68
2023/06/14 05:57:28;;;;;;;5.65;2.78;;;29.20;43.20;;;;;;5013730;28;20034;-69
2023/06/14 05:59:54;;;;;;;9.40;3.10;;;29.60;43.20;;;;;;5016510;28;20045;-67
2023/06/14 06:02:20;;;;;;;5.13;3.35;;;29.00;37.50;;;;;;5029917;28;20092;-67
2023/06/14 06:04:45;;;;;;;6.50;2.83;;;28.80;33.30;;;;;;5031646;28;20053;-67
2023/06/14 06:07:11;;;;;;;7.90;3.03;;;29.20;29.90;;;;;;5033883;28;20487;-67
2023/06/14 06:09:36;;;;;;;7.43;3.00;;;28.40;27.60;;;;;;5029728;28;20056;-67
2023/06/14 06:12:03;;;;;;;6.50;3.03;;;27.70;22.60;;;;;;5020583;28;20569;-68
2023/06/14 06:14:28;;;;;;;4.78;3.15;;;27.20;19.60;;;;;;5037275;28;20029;-67
2023/06/14 06:16:54;;;;;;;7.82;3.20;;;26.30;17.80;;;;;;5017927;28;20033;-69
2023/06/14 06:19:20;;;;;;;5.35;3.30;;;26.60;20.50;;;;;;5021989;28;20041;-67
2023/06/14 06:21:46;;;;;;;5.75;2.85;;;27.60;18.90;;;;;;5016077;28;20037;-67
2023/06/14 06:24:11;;;;;;;3.65;3.00;;;27.50;21.30;;;;;;5021656;28;20037;-67
2023/06/14 06:26:37;;;;;;;5.07;2.80;;;26.30;14.80;;;;;;5037058;28;20038;-67
2023/06/14 06:29:03;;;;;;;3.05;2.50;;;26.40;15.10;;;;;;5037994;28;20029;-67
2023/06/14 06:31:28;;;;;;;5.30;3.10;;;26.50;16.50;;;;;;5030814;28;20442;-67
2023/06/14 06:33:55;;;;;;;6.43;2.85;;;27.10;21.30;;;;;;5034019;28;20052;-68
2023/06/14 06:36:21;;;;;;;4.10;2.80;;;27.20;20.90;;;;;;5028962;28;20148;-68
2023/06/14 06:38:47;;;;;;;5.18;2.65;;;27.40;20.40;;;;;;5020677;28;20033;-68
2023/06/14 06:41:13;;;;;;;4.95;2.75;;;28.90;27.20;;;;;;5026561;28;20536;-67
2023/06/14 06:43:39;;;;;;;5.18;2.65;;;28.40;23.10;;;;;;5029612;28;20063;-67
2023/06/14 06:46:04;;;;;;;5.35;2.20;;;27.80;22.60;;;;;;5032933;28;20033;-67
2023/06/14 06:48:30;;;;;;;3.70;2.65;;;27.80;20.80;;;;;;5032119;28;20025;-66
2023/06/14 06:50:56;;;;;;;4.03;2.42;;;27.30;22.30;;;;;;5033267;28;20107;-68
2023/06/14 06:53:21;;;;;;;8.75;2.40;;;26.40;9.60;;;;;;5030933;28;20030;-68
2023/06/14 06:55:47;;;;;;;4.50;2.38;;;26.30;16.20;;;;;;5025286;28;20487;-69
2023/06/14 06:58:14;;;;;;;4.63;1.98;;;26.70;20.00;;;;;;5023498;28;20108;-67
2023/06/14 07:00:39;;;;;;;6.88;2.10;;;26.60;17.70;;;;;;5024682;28;20025;-67
2023/06/14 07:03:06;;;;;;;3.90;1.95;;;27.30;20.00;;;;;;5034529;28;20163;-68
2023/06/14 07:05:32;;;;;;;2.22;2.00;;;28.00;21.70;;;;;;5027332;28;20413;-69
2023/06/14 07:07:58;;;;;;;5.20;2.15;;;27.60;23.20;;;;;;5024235;28;20029;-68
2023/06/14 07:10:24;;;;;;;4.95;2.08;;;28.00;21.50;;;;;;5016587;28;20105;-68
2023/06/14 07:12:50;;;;;;;2.70;1.80;;;28.30;26.60;;;;;;5013825;28;20060;-69
2023/06/14 07:15:16;;;;;;;4.32;1.60;;;28.90;27.00;;;;;;5017211;28;20026;-69
2023/06/14 07:17:42;;;;;;;3.10;2.00;;;27.60;19.90;;;;;;5031112;28;20032;-69
2023/06/14 07:20:11;;;;;;;3.35;1.60;;;27.60;18.00;;;;;;5019174;28;20026;-69
2023/06/14 07:22:38;;;;;;;2.20;2.00;;;27.00;18.50;;;;;;5032892;28;20028;-68
2023/06/14 07:25:04;;;;;;;4.18;1.60;;;26.90;19.20;;;;;;5027301;28;20056;-68
2023/06/14 07:27:30;;;;;;;4.47;1.77;;;26.90;15.00;;;;;;5014078;28;20021;-67
2023/06/14 07:29:55;;;;;;;5.28;1.92;;;26.60;14.10;;;;;;5030789;28;20395;-68
2023/06/14 07:32:21;;;;;;;3.95;2.00;;;27.00;17.10;;;;;;5032488;28;20029;-68
2023/06/14 07:34:47;;;;;;;5.00;1.80;;;28.20;19.70;;;;;;5028353;28;20029;-68
2023/06/14 07:37:12;;;;;;;5.70;1.77;;;28.50;17.70;;;;;;5021790;28;20018;-68
2023/06/14 07:39:38;;;;;;;1.83;1.50;;;28.40;16.30;;;;;;5020415;28;20092;-69
2023/06/14 07:42:04;;;;;;;1.67;1.30;;;28.40;17.90;;;;;;5019831;28;20040;-68
2023/06/14 07:44:31;;;;;;;3.33;1.30;;;27.20;11.50;;;;;;5031199;28;20540;-67
2023/06/14 07:46:59;;;;;;;2.20;1.60;;;27.20;12.50;;;;;;5028871;28;20479;-68
2023/06/14 07:49:24;;;;;;;3.97;1.40;;;27.50;13.10;;;;;;5025875;28;20029;-68
2023/06/14 07:51:50;;;;;;;2.92;1.20;;;27.10;15.30;;;;;;5027854;28;20075;-68
2023/06/14 07:54:17;;;;;;;2.47;1.42;;;28.20;13.20;;;;;;5027534;28;20122;-68
2023/06/14 07:56:42;;;;;;;2.55;1.20;;;28.80;15.50;;;;;;5016172;28;20084;-68
2023/06/14 07:59:08;;;;;;;3.58;1.20;;;27.80;7.20;;;;;;5031325;28;20038;-67
2023/06/14 08:01:34;;;;;;;3.58;1.25;;;27.30;4.70;;;;;;5026607;28;20164;-69
2023/06/14 08:04:00;;;;;;;2.03;1.15;;;27.20;6.10;;;;;;5013002;28;20022;-67
2023/06/14 08:06:26;;;;;;;1.50;1.13;;;27.10;4.00;;;;;;5024700;28;20044;-68
2023/06/14 08:08:52;;;;;;;1.10;1.00;;;28.00;6.10;;;;;;5022381;28;20030;-68
2023/06/14 08:11:17;;;;;;;2.50;1.30;;;28.40;9.20;;;;;;5018150;28;20379;-68
2023/06/14 08:13:43;;;;;;;3.72;0.95;;;27.90;8.40;;;;;;5027333;28;20022;-68
2023/06/14 08:16:08;;;;;;;0.88;0.88;;;27.80;7.40;;;;;;5029622;28;20029;-70
2023/06/14 08:18:34;;;;;;;3.17;1.15;;;28.60;12.00;;;;;;5036526;28;20037;-67
2023/06/14 08:21:00;;;;;;;2.13;1.17;;;27.10;4.80;;;;;;5033913;28;20080;-67
2023/06/14 08:23:25;;;;;;;1.65;1.08;;;27.10;3.20;;;;;;5035900;28;20106;-68
2023/06/14 08:25:51;;;;;;;3.45;1.50;;;26.30;1.00;;;;;;5035041;28;20040;-67
2023/06/14 08:28:17;;;;;;;2.90;1.25;;;26.70;1.00;;;;;;5036062;28;20025;-67
2023/06/14 08:30:42;;;;;;;2.13;1.20;;;27.50;6.00;;;;;;5038491;28;20017;-68
2023/06/14 08:33:08;;;;;;;3.53;1.40;;;27.20;1.00;;;;;;5032169;28;20036;-67
2023/06/14 08:35:37;;;;;;;1.55;1.23;;;27.50;6.00;;;;;;5036764;28;20087;-67
2023/06/14 08:38:03;;;;;;;2.35;1.20;;;26.20;1.20;;;;;;5037502;28;20486;-67
2023/06/14 08:40:30;;;;;;;2.03;1.13;;;25.80;1.00;;;;;;5036891;28;20029;-68
2023/06/14 08:42:56;;;;;;;2.00;1.13;;;26.90;4.50;;;;;;5029219;28;20040;-67
2023/06/14 08:45:23;;;;;;;1.55;1.38;;;27.30;4.80;;;;;;5020054;28;20430;-68
2023/06/14 08:47:51;;;;;;;6.07;1.60;;;26.50;1.00;;;;;;5021923;28;20503;-69
2023/06/14 08:50:20;;;;;;;2.15;1.25;;;27.70;10.40;;;;;;5012312;28;20038;-70
2023/06/14 08:52:52;;;;;;;1.48;1.25;;;28.90;14.20;;;;;;5028011;28;20060;-68
2023/06/14 08:55:19;;;;;;;3.28;1.35;;;29.30;17.60;;;;;;5026927;28;20061;-68
2023/06/14 08:57:47;;;;;;;2.22;1.25;;;29.10;14.30;;;;;;5027848;28;20064;-67
2023/06/14 09:00:14;;;;;;;1.58;1.30;;;27.50;8.00;;;;;;5027449;28;20055;-68
2023/06/14 09:02:43;;;;;;;2.80;1.75;;;27.00;6.80;;;;;;5037157;28;20100;-67
2023/06/14 09:05:10;;;;;;;3.20;1.63;;;27.80;3.10;;;;;;5028456;28;20052;-67
2023/06/14 09:07:38;;;;;;;6.40;1.73;;;27.80;6.70;;;;;;5032803;28;20036;-67
2023/06/14 09:10:09;;;;;;;2.58;1.75;;;27.50;5.50;;;;;;5031806;28;20070;-68
2023/06/14 09:12:35;;;;;;;1.92;1.40;;;27.20;3.30;;;;;;5033888;28;20025;-68
2023/06/14 09:15:05;;;;;;;1.90;1.30;;;26.90;1.80;;;;;;5031530;28;20435;-67
2023/06/14 09:17:33;;;;;;;2.85;1.60;;;27.40;5.00;;;;;;5022580;28;20064;-67
2023/06/14 09:19:59;;;;;;;3.13;1.70;;;27.10;1.90;;;;;;5031521;28;20117;-67
2023/06/14 09:22:24;;;;;;;2.55;1.75;;;27.30;2.90;;;;;;5034802;28;20079;-67
2023/06/14 09:24:50;;;;;;;3.90;1.70;;;26.90;2.60;;;;;;5033413;28;20480;-68
2023/06/14 09:27:16;;;;;;;2.22;1.92;;;27.30;3.90;;;;;;5030158;28;20030;-68
2023/06/14 09:29:41;;;;;;;2.92;1.65;;;26.30;1.00;;;;;;5030030;28;20041;-68
2023/06/14 09:32:07;;;;;;;3.00;1.70;;;26.20;1.00;;;;;;5020701;28;20025;-67
2023/06/14 09:34:35;;;;;;;4.30;1.80;;;26.80;1.20;;;;;;5027052;28;20213;-67
2023/06/14 09:37:00;;;;;;;2.03;1.65;;;26.60;1.00;;;;;;5028482;28;20110;-67
2023/06/14 09:39:27;;;;;;;2.33;1.80;;;26.00;1.00;;;;;;5032733;28;20068;-67
2023/06/14 09:41:52;;;;;;;5.85;1.85;;;26.80;3.30;;;;;;5022130;28;20052;-67
2023/06/14 09:44:20;;;;;;;1.63;1.52;;;27.50;5.20;;;;;;5022437;28;20100;-68
2023/06/14 09:46:46;;;;;;;1.83;1.45;;;27.70;5.10;;;;;;5030053;28;20487;-68
2023/06/14 09:49:12;;;;;;;2.78;1.50;;;28.30;8.60;;;;;;5035102;28;20031;-67
2023/06/14 09:51:43;;;;;;;2.25;1.45;;;27.30;14.40;;;;;;5035906;28;20029;-68
2023/06/14 09:54:16;;;;;;;2.75;1.40;;;27.30;3.00;;;;;;5024781;28;20450;-67
2023/06/14 09:56:44;;;;;;;3.15;1.67;;;27.30;1.00;;;;;;5016775;28;20041;-68
2023/06/14 09:59:12;;;;;;;2.15;1.30;;;26.70;1.00;;;;;;5017757;28;20505;-67
2023/06/14 10:01:42;;;;;;;4.15;1.52;;;26.90;1.00;;;;;;5024370;28;20482;-69
2023/06/14 10:04:09;;;;;;;2.88;1.40;;;26.50;1.00;;;;;;5025762;28;20136;-67
2023/06/14 10:06:39;;;;;;;2.85;1.67;;;26.20;1.00;;;;;;5025368;28;20057;-68
2023/06/14 10:09:07;;;;;;;2.45;1.50;;;26.60;1.00;;;;;;5013721;28;20483;-67
2023/06/14 10:11:35;;;;;;;3.67;1.67;;;27.00;1.00;;;;;;5039601;28;20045;-67
2023/06/14 10:14:03;;;;;;;2.67;1.50;;;26.80;1.00;;;;;;5015790;28;20037;-67
2023/06/14 10:16:34;;;;;;;2.92;1.70;;;26.90;1.00;;;;;;5023258;28;20030;-66
2023/06/14 10:19:18;;;;;;;1.70;1.60;;;27.40;3.60;;;;;;5023364;28;20033;-67
2023/06/14 10:22:08;;;;;;;5.38;1.80;;;26.90;1.00;;;;;;5039393;28;20449;-67
2023/06/14 10:24:39;;;;;;;4.97;1.85;;;27.00;1.00;;;;;;5027105;28;20395;-66
2023/06/14 10:27:10;;;;;;;4.47;1.80;;;27.70;1.00;;;;;;5033674;28;20049;-67
2023/06/14 10:29:58;;;;;;;3.08;1.60;;;27.90;2.90;;;;;;5018528;28;20094;-68
2023/06/14 10:32:25;;;;;;;1.80;1.70;;;28.50;4.90;;;;;;5029628;28;20033;-68
2023/06/14 10:34:56;;;;;;;2.92;1.85;;;28.20;2.40;;;;;;5029679;28;20092;-67
2023/06/14 10:37:21;;;;;;;3.22;1.88;;;27.90;1.00;;;;;;5031866;28;20045;-67
2023/06/14 10:39:47;;;;;;;5.25;1.92;;;28.10;1.00;;;;;;5033211;28;20033;-67
2023/06/14 10:42:14;;;;;;;2.35;2.00;;;28.00;1.00;;;;;;5031334;28;20092;-67
2023/06/14 10:44:59;;;;;;;3.75;1.80;;;27.80;1.00;;;;;;5028447;28;20037;-67
2023/06/14 10:47:30;;;;;;;1.67;1.58;;;27.90;1.00;;;;;;5027280;28;20052;-67
2023/06/14 10:50:14;;;;;;;4.95;2.40;;;27.80;1.00;;;;;;5026386;28;20021;-67
2023/06/14 10:52:43;;;;;;;4.72;2.00;;;26.20;1.00;;;;;;5025510;28;20029;-68
2023/06/14 10:55:14;;;;;;;3.22;2.20;;;25.30;1.00;;;;;;5031475;28;20037;-67
2023/06/14 10:57:51;;;;;;;3.20;2.30;;;25.00;1.00;;;;;;5020024;28;20396;-67
2023/06/14 11:00:22;;;;;;;3.30;2.15;;;25.40;1.00;;;;;;5031317;28;20486;-67
2023/06/14 11:03:13;;;;;;;4.45;2.50;;;25.40;1.00;;;;;;5028787;28;20026;-68
2023/06/14 11:05:55;;;;;;;2.53;2.33;;;25.70;1.00;;;;;;5013568;28;20096;-66
2023/06/14 11:08:42;;;;;;;;;;;25.60;1.00;;;;;;5020263;28;20037;-68
2023/06/14 11:11:08;;;;;;;6.22;2.72;;;25.00;1.00;;;;;;5019572;28;19913;-66
2023/06/14 11:13:37;;;;;;;4.05;2.60;;;24.30;1.00;;;;;;5028315;28;20088;-66
2023/06/14 11:16:11;;;;;;;3.95;2.35;;;24.00;1.00;;;;;;5015843;28;20021;-68
2023/06/14 11:18:37;;;;;;;7.43;2.25;;;24.40;1.00;;;;;;5018197;28;20483;-67
2023/06/14 11:21:03;;;;;;;2.83;2.25;;;24.90;1.00;;;;;;5026762;28;20042;-68
2023/06/14 11:23:29;;;;;;;7.50;2.75;;;24.60;1.00;;;;;;5021538;28;20044;-66
2023/06/14 11:25:54;;;;;;;6.25;2.88;;;24.30;1.00;;;;;;5029009;28;20034;-67
2023/06/14 11:28:21;;;;;;;2.60;2.40;;;24.40;1.00;;;;;;5024724;28;20025;-67
2023/06/14 11:30:48;;;;;;;5.30;2.70;;;24.60;1.00;;;;;;5032750;28;20037;-66
2023/06/14 11:33:19;;;;;;;4.40;2.47;;;24.50;1.00;;;;;;5029641;28;20070;-66
2023/06/14 11:35:45;;;;;;;4.40;3.03;;;24.30;1.00;;;;;;5026748;28;20037;-67
2023/06/14 11:38:11;;;;;;;6.22;3.00;;;24.20;1.00;;;;;;5031719;28;20025;-66
2023/06/14 11:40:38;;;;;;;4.28;2.70;;;24.00;1.00;;;;;;5026260;28;20075;-67
2023/06/14 11:43:04;;;;;;;3.30;2.90;;;24.70;1.00;;;;;;5026994;28;20421;-66
2023/06/14 11:45:30;;;;;;;3.85;2.30;;;25.30;1.00;;;;;;5029404;28;20118;-69
2023/06/14 11:47:57;;;;;;;2.83;2.60;;;25.10;1.00;;;;;;5026024;28;20083;-66
2023/06/14 11:50:23;;;;;;;4.38;2.35;;;24.60;1.00;;;;;;5029829;28;20018;-66
2023/06/14 11:52:57;;;;;;;3.47;2.40;;;24.20;1.00;;;;;;5023403;28;20032;-66
2023/06/14 11:55:23;;;;;;;5.35;2.70;;;24.40;1.00;;;;;;5029170;28;20029;-67
2023/06/14 11:57:50;;;;;;;4.53;2.78;;;24.20;1.00;;;;;;5007475;28;20103;-67
2023/06/14 12:00:17;;;;;;;3.90;3.17;;;24.50;1.00;;;;;;5012863;28;20060;-67
2023/06/14 12:02:43;;;;;;;4.88;2.97;;;24.60;1.00;;;;;;5026421;28;20105;-67
2023/06/14 12:05:10;;;;;;;5.70;3.05;;;24.50;1.00;;;;;;5024121;28;20132;-66
2023/06/14 12:07:37;;;;;;;3.65;2.70;;;23.90;1.00;;;;;;5023828;28;20080;-66
2023/06/14 12:12:41;;;;;;;5.65;2.78;;;24.10;1.00;;;;;;5109110;27;20351;-68
2023/06/14 12:15:09;;;;;;;3.22;2.92;;;24.80;1.00;;;;;;5102408;28;20408;-69
2023/06/14 12:17:36;;;;;;;7.55;3.00;;;25.00;1.00;;;;;;5099135;28;20028;-67
2023/06/14 12:20:11;;;;;;;4.80;3.15;;;24.90;1.00;;;;;;5099924;28;20026;-69
2023/06/14 12:22:37;;;;;;;5.47;3.00;;;24.80;1.00;;;;;;5097496;28;20162;-67
2023/06/14 12:25:04;;;;;;;4.60;2.80;;;24.80;1.00;;;;;;5106305;28;20082;-67
2023/06/14 12:27:30;;;;;;;5.22;3.13;;;25.00;1.00;;;;;;5108239;28;20478;-68
2023/06/14 12:30:01;;;;;;;4.40;2.85;;;24.50;1.00;;;;;;5104159;28;20028;-67
2023/06/14 12:32:27;;;;;;;7.28;3.20;;;24.60;1.00;;;;;;5087156;28;20482;-67
2023/06/14 12:34:53;;;;;;;4.10;2.80;;;24.30;1.00;;;;;;5100441;28;20024;-66
2023/06/14 12:37:18;;;;;;;3.00;2.80;;;24.50;1.00;;;;;;5105115;28;20020;-68
2023/06/14 12:39:44;;;;;;;4.88;2.70;;;24.50;1.00;;;;;;5093519;28;20028;-67
2023/06/14 12:42:09;;;;;;;2.88;2.65;;;25.00;1.00;;;;;;5099036;28;20059;-67
2023/06/14 12:44:40;;;;;;;3.33;2.90;;;25.30;1.00;;;;;;5097487;28;20036;-66
2023/06/14 12:47:06;;;;;;;8.00;3.30;;;25.60;1.00;;;;;;5096704;28;20123;-67
2023/06/14 12:49:32;;;;;;;4.07;2.70;;;24.80;1.00;;;;;;5089600;28;20033;-67
2023/06/14 12:51:57;;;;;;;3.53;2.80;;;24.90;1.00;;;;;;5101959;28;20462;-68
2023/06/14 12:54:25;;;;;;;3.42;2.60;;;24.80;1.00;;;;;;5099708;28;20024;-67